Details From GCTS - Tenerife Sur
To GCGM - La Gomera
Flight Number -
Tags generated
Created
Modified
Stats Distance 35 nm / 64 km
Max Altitude 2,300 ft / 701 m
Waypoints 3
Social Downloads 1
Likes 0
Share VATSIM

Download

Looking for another format? Having issues loading an existing format? Contact us
Advertisement - Login to hide

Notes

Basic altitude profile: - Ascent Rate: 2500ft/min - Ascent Speed: 250kts - Cruise Altitude: 35000ft - Cruise Speed: 420kts - Descent Rate: 1500ft/min - Descent Speed: 250kts Options: - Use NATs: yes - Use PACOTS: yes - Use low airways: yes - Use high airways: yes

Route

GCTS TFS GCGM

ID Type Via Altitude Latitude Longitude Leg Dist Tot Dist Heading (true) Name
O GCTS APT - 0 ft / 0 m 28.04448˚ -16.57249˚ - 0 nm - Tenerife Sur
TFS VOR - 2,300 ft / 701 m 28.00245˚ -16.68793˚ 6 nm 6 nm 248° / 248° TENERIFE SUR VOR-DME
O GCGM APT - 0 ft / 0 m 28.02963˚ -17.21460˚ 27 nm 34 nm 273° / 273° La Gomera

Altitude Profile

Advertisement - Login to hide

GCTS

Details ICAO GCTS (TFS)
Name Tenerife Sur
Region Canary Islands
Timezone Atlantic/Canary (UTC+1.0)
Stats Elevation 209 ft / 64 m (AMSL)
Location 28.044475° -16.572488°
Runways 1
Magnetic Variation 5.067° W

METAR

GCTS 202000Z 13003KT 110V170 9999 BKN045 19/12 Q1016 NOSIG

Decode

TAF

TAF GCTS 202000Z 2021/2121 VRB05KT 9999 FEW035 TX23/2115Z TN16/2105Z PROB30 TEMPO 2104/2111 DZRA

Decode

Departure Runways

ID Width Length Bearing (true) Bearing (mag) Surface Threshold Offset Overrun Length
08 148 ft / 45 m 10,489 ft / 3,197 m 68.47° 73.54° Asphalt 0 ft / 0 m 0 ft / 0 m
26 148 ft / 45 m 10,489 ft / 3,197 m 248.49° 253.56° Asphalt 0 ft / 0 m 0 ft / 0 m

GCGM

Details ICAO GCGM (GMZ)
Name La Gomera
Region Canary Islands
Timezone Atlantic/Canary (UTC+1.0)
Stats Elevation 715 ft / 218 m (AMSL)
Location 28.029627° -17.214603°
Runways 1
Magnetic Variation 5.309° W

METAR

GCGM 202000Z AUTO 00000KT 9999 BKN040 19/12 Q1017 RMK R09/25003KT 220V290 ARP/VRB02KT

Decode

TAF

TAF GCGM 202000Z 2021/2121 VRB04KT 9999 SCT030 TX22/2115Z TN18/2105Z TEMPO 2111/2116 26012KT

Decode

Destination Runways

ID Width Length Bearing (true) Bearing (mag) Surface Threshold Offset Overrun Length
09 98 ft / 30 m 4,914 ft / 1,498 m 81.17° 86.48° Asphalt 0 ft / 0 m 0 ft / 0 m
27 98 ft / 30 m 4,914 ft / 1,498 m 261.18° 266.49° Asphalt 0 ft / 0 m 0 ft / 0 m

Popular Alternatives